M I D A S
Marine Information and Data Acquisition System
Tripno 1716 of the Zeeleeuw from 2009-06-25 07:14:08 to 2009-06-25 13:53:43
Back to CruiseResearch ActivitiesStationsMapUnderway DataData graphs

EquipmentUnitsComment
TimeDGPSUTC
LatitudeDGPSDM.mWGS84
LongitudeDGPSDM.mWGS84
TemperatureSBE03/SBE38deg celciusITS90
ConductivitySBE21S/mITS90
SalinitySBE21 Practical Salinity Units
ChlorophylAChelsea fluorimeterg/lCalibrated in Aceton
Missing or incorrect values are displayed as -999
Sea surface data collected by the RV Zeeleeuw from 2009-06-25 07:08:44 to 2009-06-25 14:03:05
Time Latitude Longitude Temperature Conductivity Salinity ChlorophylA
2009-06-25 07:09:53 51°13.678 2°55.907 21.8013 0.050749 0.266479 6.242835
2009-06-25 07:10:52 51°13.694 2°55.825 21.8383 0.051263 0.269256 6.242835
2009-06-25 07:11:52 51°13.702 2°55.752 21.8626 0.052704 0.277008 6.208011
2009-06-25 07:12:50 51°13.707 2°55.752 21.8301 0.050955 0.267589 6.208011
2009-06-25 07:13:52 51°13.721 2°55.734 21.8175 0.055997 0.294783 6.208011
2009-06-25 07:14:50 51°13.785 2°55.677 21.8139 0.054762 0.288095 6.173187
2009-06-25 07:15:49 51°13.888 2°55.595 21.8423 0.05538 0.29145 6.173187
2009-06-25 07:16:49 51°14.016 2°55.49 21.825 0.054042 0.284231 6.173187
2009-06-25 07:17:49 51°14.155 2°55.38 21.8777 0.054968 0.289234 6.138363
2009-06-25 07:18:49 51°14.28 2°55.209 21.8455 0.056512 0.297582 6.138363
2009-06-25 07:19:49 51°14.399 2°54.995 21.7819 0.053527 0.281449 6.103539
2009-06-25 07:20:49 51°14.546 2°54.791 21.807 0.055688 0.293146 6.138363
2009-06-25 07:21:49 51°14.68 2°54.564 21.7439 0.0561 0.295319 6.103539
2009-06-25 07:22:49 51°14.805 2°54.319 21.7146 0.058261 0.307149 6.103539
2009-06-25 07:23:49 51°14.926 2°54.073 21.7494 0.056718 0.298794 6.068715
2009-06-25 07:24:49 51°15.041 2°53.824 21.6917 0.059599 0.314312 6.033891
2009-06-25 07:25:49 51°15.157 2°53.576 21.7339 0.056306 0.296734 6.033891
2009-06-25 07:26:49 51°15.275 2°53.325 21.7023 0.058467 0.309493 6.033891
2009-06-25 07:27:49 51°15.394 2°53.07 21.7428 0.057438 0.303306 5.999067
2009-06-25 07:28:49 51°15.523 2°52.836 21.7328 0.059805 0.316418 5.999067
2009-06-25 07:29:49 51°15.691 2°52.755 21.7356 0.059702 0.315938 5.999067
2009-06-25 07:30:49 51°15.866 2°52.728 21.7382 0.058982 0.312481 5.999067
2009-06-25 07:31:49 51°16.046 2°52.673 21.7287 0.057952 0.306976 6.033891
2009-06-25 07:32:49 51°16.225 2°52.607 21.726 0.058158 0.307996 5.999067
2009-06-25 07:33:49 51°16.404 2°52.536 21.7311 0.060422 0.320291 5.999067
2009-06-25 07:34:49 51°16.584 2°52.471 21.7615 0.060628 0.321571 5.964243
2009-06-25 07:35:49 51°16.764 2°52.425 21.7616 0.062686 0.332534 5.964243
2009-06-25 07:36:49 51°16.938 2°52.407 21.769 0.059908 0.317864 5.964243
2009-06-25 07:37:49 51°17.11 2°52.425 21.7759 0.063407 0.336811 5.964243
2009-06-25 07:38:49 51°17.283 2°52.431 21.7793 0.063715 0.338471 5.929418
2009-06-25 07:39:49 51°17.455 2°52.443 21.7836 0.065053 0.345933 5.929418
2009-06-25 07:40:49 51°17.627 2°52.455 21.8122 0.064847 0.345041 5.929418
2009-06-25 07:41:49 51°17.799 2°52.468 21.8187 0.061246 0.325115 5.894594
2009-06-25 07:42:49 51°17.968 2°52.501 21.8265 0.06104 0.324212 5.894594
2009-06-25 07:43:49 51°18.126 2°52.586 21.8232 0.065156 0.346839 5.929418
2009-06-25 07:44:49 51°18.246 2°52.755 21.8275 0.07061 0.376779 5.894594
2009-06-25 07:45:49 51°18.328 2°52.976 21.8477 0.057747 0.306245 5.894594
2009-06-25 07:46:49 51°18.358 2°53.23 21.8576 0.059393 0.315267 5.85977
2009-06-25 07:47:49 51°18.385 2°53.486 21.8753 0.061451 0.326566 5.85977
2009-06-25 07:48:49 51°18.431 2°53.735 21.8877 0.061349 0.325971 5.824946
2009-06-25 07:49:49 51°18.481 2°53.981 21.8867 0.061349 0.325987 5.85977
2009-06-25 07:50:49 51°18.534 2°54.224 21.8881 0.063201 0.336154 5.824946
2009-06-25 07:51:49 51°18.586 2°54.468 21.9019 0.058982 0.313027 5.824946
2009-06-25 07:52:49 51°18.639 2°54.711 21.9231 0.057232 0.303402 5.824946
2009-06-25 07:53:49 51°18.698 2°54.952 21.9297 0.065671 0.349537 5.790122
2009-06-25 07:54:49 51°18.768 2°55.186 21.955 0.063098 0.335431 5.790122
2009-06-25 07:55:49 51°18.841 2°55.418 21.9662 0.062892 0.334282 5.755298
2009-06-25 07:56:49 51°18.913 2°55.646 21.9756 0.065465 0.348384 5.790122
2009-06-25 07:57:49 51°18.981 2°55.879 21.9763 0.062892 0.334345 5.720474
2009-06-25 07:58:49 51°19.049 2°56.114 21.9911 0.063818 0.339409 5.720474
2009-06-25 07:59:49 51°19.118 2°56.347 22.01 0.061143 0.324846 5.720474
2009-06-25 08:00:49 51°19.186 2°56.582 21.9973 0.06351 0.337724 5.720474
2009-06-25 08:01:49 51°19.253 2°56.818 22.0084 0.05929 0.314636 5.68565
2009-06-25 08:02:49 51°19.32 2°57.052 22.0434 0.067009 0.356853 5.650826
2009-06-25 08:03:49 51°19.387 2°57.285 22.0496 0.067935 0.361971 5.650826
2009-06-25 08:04:49 51°19.455 2°57.517 22.0491 0.068552 0.365377 5.650826
2009-06-25 08:05:49 51°19.526 2°57.747 22.0593 0.064847 0.345029 5.616002
2009-06-25 08:06:49 51°19.594 2°57.977 22.0676 0.067009 0.35692 5.616002
2009-06-25 08:07:49 51°19.665 2°58.204 22.0878 0.070302 0.375098 5.581178
2009-06-25 08:08:49 51°19.733 2°58.433 22.0953 0.066906 0.356264 5.581178
2009-06-25 08:09:49 51°19.8 2°58.664 22.1197 0.071331 0.380767 5.546354
2009-06-25 08:10:49 51°19.866 2°58.896 22.1259 0.070302 0.374873 5.546354
2009-06-25 08:11:49 51°19.931 2°59.127 22.1231 0.070096 0.373868 5.51153
2009-06-25 08:12:49 51°19.997 2°59.359 22.1363 0.072875 0.389186 5.51153
2009-06-25 08:13:49 51°20.066 2°59.586 22.1588 0.076476 0.409138 5.476706
2009-06-25 08:14:49 51°20.132 2°59.815 22.1421 0.06989 0.372589 5.476706
2009-06-25 08:15:49 51°20.202 3°0.041 22.1634 0.073286 0.391491 5.441882
2009-06-25 08:16:49 51°20.269 3°0.271 22.1791 0.073801 0.394358 5.441882
2009-06-25 08:17:49 51°20.337 3°0.5 22.1884 0.085842 0.461237 5.407058
2009-06-25 08:18:49 51°20.405 3°0.727 22.1815 0.077917 0.417084 5.407058
2009-06-25 08:19:49 51°20.471 3°0.953 22.2099 0.069787 0.37215 5.372234
2009-06-25 08:20:49 51°20.538 3°1.18 22.2135 0.072669 0.388064 5.372234
2009-06-25 08:21:49 51°20.592 3°1.416 22.2106 0.081828 0.438943 5.33741
2009-06-25 08:22:49 51°20.611 3°1.665 22.2405 0.086768 0.466245 5.302586
2009-06-25 08:23:49 51°20.623 3°1.918 22.239 0.074212 0.396719 5.302586
2009-06-25 08:24:49 51°20.64 3°2.17 22.2576 0.085121 0.457226 5.267761
2009-06-25 08:25:49 51°20.66 3°2.421 22.2686 0.079152 0.424028 5.267761
2009-06-25 08:26:49 51°20.68 3°2.672 22.282 0.09356 0.504361 5.232937
2009-06-25 08:27:49 51°20.698 3°2.922 22.2911 0.082137 0.440605 5.232937
2009-06-25 08:28:49 51°20.712 3°3.171 22.2981 0.082548 0.442984 5.198113
2009-06-25 08:29:49 51°20.74 3°3.416 22.3027 0.08224 0.441147 5.198113
2009-06-25 08:30:49 51°20.774 3°3.657 22.311 0.079461 0.425696 5.163289
2009-06-25 08:31:49 51°20.808 3°3.899 22.3308 0.081931 0.439432 5.128465
2009-06-25 08:32:49 51°20.842 3°4.146 22.3359 0.087282 0.469225 5.128465
2009-06-25 08:33:49 51°20.876 3°4.394 22.3488 0.083372 0.447438 5.128465
2009-06-25 08:34:49 51°20.912 3°4.641 22.3479 0.082754 0.443952 5.093641
2009-06-25 08:35:49 51°20.948 3°4.891 22.3591 0.085636 0.459925 5.058817
2009-06-25 08:36:49 51°20.98 3°5.143 22.3767 0.097882 0.528441 5.023993
2009-06-25 08:37:49 51°21.013 3°5.393 22.3791 0.106836 0.578867 5.023993
2009-06-25 08:38:49 51°21.049 3°5.644 22.4044 0.099735 0.538561 4.989169
2009-06-25 08:39:49 51°21.081 3°5.894 22.408 0.126596 0.690617 4.989169
2009-06-25 08:40:49 51°21.102 3°6.147 22.4059 0.086047 0.462169 8.018862
2009-06-25 08:41:49 51°21.123 3°6.402 22.4108 0.097368 0.525582 7.14826
2009-06-25 08:42:49 51°21.148 3°6.656 22.4361 0.103852 0.562028 7.566149
2009-06-25 08:43:49 51°21.175 3°6.909 22.4491 0.113217 0.614789 7.949214
2009-06-25 08:44:49 51°21.218 3°7.155 22.4622 0.108483 0.587863 8.192982
2009-06-25 08:45:49 51°21.271 3°7.398 22.4663 0.097368 0.525545 8.367102
2009-06-25 08:46:49 51°21.325 3°7.64 22.4693 0.09778 0.527946 8.43675
2009-06-25 08:47:49 51°21.382 3°7.878 22.4767 0.090061 0.484679 8.471574
2009-06-25 08:48:49 51°21.436 3°8.116 22.5096 0.10097 0.545657 8.471574
2009-06-25 08:49:49 51°21.488 3°8.359 22.5056 0.089135 0.479384 8.367102
2009-06-25 08:50:49 51°21.534 3°8.566 22.5191 0.107454 0.582269 8.332278
2009-06-25 08:51:49 51°21.569 3°8.626 22.549 0.093148 0.501987 8.227806
2009-06-25 08:52:49 51°21.618 3°8.552 22.5399 0.105807 0.572885 8.123334
2009-06-25 08:53:49 51°21.662 3°8.425 18.411 4.159938 28.657731 8.541223
2009-06-25 08:54:49 51°21.706 3°8.349 18.0388 4.156351 30.923664 8.750167
2009-06-25 08:55:49 51°21.761 3°8.312 17.9781 4.124506 30.874051 8.610871
2009-06-25 08:56:49 51°21.824 3°8.283 17.9738 4.125233 30.924968 8.541223
2009-06-25 08:57:49 51°21.887 3°8.262 17.9542 4.128553 30.970115 8.576047
2009-06-25 08:58:49 51°21.951 3°8.229 17.9457 4.132599 31.018389 8.506398
2009-06-25 08:59:49 51°22.005 3°8.242 17.9231 4.136334 31.05989 8.43675
2009-06-25 09:00:49 51°22.05 3°8.287 17.9164 4.141417 31.119971 8.471574
2009-06-25 09:01:49 51°22.088 3°8.359 17.9124 4.142558 31.133161 8.610871
2009-06-25 09:02:49 51°22.098 3°8.455 17.8982 4.147746 31.186331 8.715343
2009-06-25 09:03:49 51°22.09 3°8.559 17.8989 4.14868 31.200828 8.819815
2009-06-25 09:04:49 51°22.056 3°8.655 17.8953 4.148161 31.202542 8.889463
2009-06-25 09:05:49 51°21.998 3°8.723 17.8971 4.147953 31.197769 8.819815
2009-06-25 09:06:49 51°21.927 3°8.766 17.8985 4.14453 31.170871 8.715343
2009-06-25 09:07:49 51°21.852 3°8.782 17.8941 4.147746 31.197847 8.715343
2009-06-25 09:08:49 51°21.775 3°8.769 17.9007 4.146916 31.19513 8.680519
2009-06-25 09:09:49 51°21.707 3°8.719 17.9002 4.142559 31.157367 8.784991
2009-06-25 09:10:49 51°21.647 3°8.649 17.9156 4.144737 31.169582 8.506398
2009-06-25 09:11:49 51°21.599 3°8.57 17.9217 4.143389 31.149797 8.471574
2009-06-25 09:12:49 51°21.561 3°8.489 17.9234 4.142247 31.135995 8.367102
2009-06-25 09:13:49 51°21.531 3°8.404 17.9297 4.140172 31.114977 8.192982
2009-06-25 09:14:49 51°21.507 3°8.314 17.9323 4.138097 31.093966 7.984038
2009-06-25 09:15:49 51°21.483 3°8.216 17.9341 4.134052 31.058258 7.949214
2009-06-25 09:16:49 51°21.451 3°8.119 17.9326 4.135815 31.073636 7.775093
2009-06-25 09:17:49 51°21.413 3°8.022 17.9319 4.131769 31.03914 7.809917
2009-06-25 09:18:49 51°21.373 3°7.926 17.9312 4.12845 31.013743 7.844741
2009-06-25 09:19:49 51°21.34 3°7.823 17.9291 4.130213 31.029118 7.844741
2009-06-25 09:20:49 51°21.319 3°7.716 17.9296 4.131354 31.038074 7.879566
2009-06-25 09:21:49 51°21.311 3°7.619 17.9275 4.131251 31.039014 7.91439
2009-06-25 09:22:49 51°21.307 3°7.529 17.9299 4.130317 31.033 7.949214
2009-06-25 09:23:49 51°21.316 3°7.438 17.9276 4.130628 31.031991 7.809917
2009-06-25 09:24:49 51°21.341 3°7.389 17.9281 4.130732 31.034668 8.018862
2009-06-25 09:25:49 51°21.36 3°7.39 17.9264 4.130732 31.035271 8.123334
2009-06-25 09:26:49 51°21.366 3°7.404 17.9312 4.130317 31.031795 8.158158
2009-06-25 09:27:49 51°21.372 3°7.416 17.9292 4.131354 31.036869 8.158158
2009-06-25 09:28:49 51°21.381 3°7.423 17.9375 4.135089 31.066949 7.984038
2009-06-25 09:29:49 51°21.393 3°7.441 17.9413 4.13623 31.071683 7.705445
2009-06-25 09:30:49 51°21.455 3°7.562 17.9465 4.137267 31.078563 7.426853
2009-06-25 09:31:49 51°21.555 3°7.758 17.9413 4.139031 31.089715 7.984038
2009-06-25 09:32:49 51°21.65 3°7.97 17.9236 4.142455 31.123226 8.680519
2009-06-25 09:33:49 51°21.725 3°8.199 17.9185 4.146708 31.171575 9.342176
2009-06-25 09:34:49 51°21.811 3°8.418 17.9324 4.147849 31.181748 9.481472
2009-06-25 09:35:49 51°21.938 3°8.578 17.9507 4.144841 31.146847 9.446648
2009-06-25 09:36:49 51°22.072 3°8.736 17.9586 4.13872 31.085298 9.237704
2009-06-25 09:37:49 51°22.199 3°8.913 17.9555 4.138408 31.077263 9.307352
2009-06-25 09:38:49 51°22.312 3°9.109 17.9465 4.142454 31.114165 9.307352
2009-06-25 09:39:49 51°22.406 3°9.326 17.9255 4.15148 31.200678 9.307352
2009-06-25 09:40:49 51°22.483 3°9.565 17.9141 4.157601 31.259881 9.237704
2009-06-25 09:41:49 51°22.553 3°9.813 17.908 4.160403 31.291882 9.168055
2009-06-25 09:42:49 51°22.621 3°10.062 17.9117 4.159884 31.294219 9.063583
2009-06-25 09:43:49 51°22.667 3°10.324 17.9289 4.157394 31.268466 9.168055
2009-06-25 09:44:49 51°22.692 3°10.591 17.943 4.152622 31.214486 9.20288
2009-06-25 09:45:49 51°22.716 3°10.854 17.9691 4.146293 31.149342 9.20288
2009-06-25 09:46:49 51°22.735 3°11.118 17.9995 4.138201 31.064073 9.168055
2009-06-25 09:47:49 51°22.727 3°11.384 18.0032 4.131457 30.989005 9.168055
2009-06-25 09:48:49 51°22.719 3°11.648 18.0215 4.123677 30.914957 9.168055
2009-06-25 09:49:49 51°22.725 3°11.912 18.0299 4.116622 30.845249 9.133231
2009-06-25 09:50:49 51°22.737 3°12.175 18.0321 4.108323 30.771768 9.098407
2009-06-25 09:51:49 51°22.767 3°12.431 18.0506 4.101684 30.710399 8.924287
2009-06-25 09:52:49 51°22.829 3°12.676 18.0617 4.096082 30.652978 8.750167
2009-06-25 09:53:49 51°22.893 3°12.922 18.037 4.090585 30.605944 8.819815
2009-06-25 09:54:49 51°22.955 3°13.171 18.0259 4.085087 30.574893 8.854639
2009-06-25 09:55:49 51°23.019 3°13.418 18.0239 4.082079 30.55631 8.819815
2009-06-25 09:56:49 51°23.081 3°13.668 18.016 4.08156 30.551393 8.750167
2009-06-25 09:57:49 51°23.143 3°13.917 17.999 4.080316 30.551065 8.750167
2009-06-25 09:58:49 51°23.202 3°14.169 18.0026 4.079383 30.550969 8.645695
2009-06-25 09:59:49 51°23.258 3°14.422 17.9762 4.07959 30.560397 8.610871
2009-06-25 10:00:49 51°23.315 3°14.671 17.977 4.08125 30.58255 8.576047
2009-06-25 10:01:49 51°23.374 3°14.924 17.9817 4.08571 30.6198 8.645695
2009-06-25 10:02:49 51°23.437 3°15.177 17.9739 4.090067 30.65619 8.750167
2009-06-25 10:03:49 51°23.501 3°15.429 17.9704 4.092453 30.679095 8.715343
2009-06-25 10:04:49 51°23.56 3°15.682 17.965 4.092868 30.687917 8.715343
2009-06-25 10:05:49 51°23.622 3°15.938 17.9658 4.093594 30.695771 8.471574
2009-06-25 10:06:49 51°23.629 3°16.209 17.9547 4.094839 30.704388 8.192982
2009-06-25 10:07:49 51°23.571 3°16.474 17.9583 4.094217 30.710503 8.123334
2009-06-25 10:08:49 51°23.507 3°16.734 17.958 4.09432 30.70303 7.984038
2009-06-25 10:09:49 51°23.463 3°17.006 17.9512 4.091208 30.684164 7.670621
2009-06-25 10:10:49 51°23.432 3°17.286 17.9319 4.08457 30.635216 7.357205
2009-06-25 10:11:49 51°23.398 3°17.567 17.9283 4.077931 30.588637 7.287557
2009-06-25 10:12:49 51°23.411 3°17.837 17.9334 4.072849 30.547935 7.392029
2009-06-25 10:13:49 51°23.506 3°18.076 17.9549 4.070463 30.520887 7.113436
2009-06-25 10:14:49 51°23.585 3°18.33 17.9499 4.069944 30.50649 6.97414
2009-06-25 10:15:49 51°23.633 3°18.605 17.9473 4.071085 30.51898 7.078612
2009-06-25 10:16:49 51°23.679 3°18.883 17.9532 4.073678 30.544198 6.97414
2009-06-25 10:17:49 51°23.723 3°19.164 17.9798 4.076894 30.560985 6.765196
2009-06-25 10:18:49 51°23.769 3°19.448 17.9694 4.080939 30.58173 6.660724
2009-06-25 10:19:49 51°23.82 3°19.731 17.9655 4.081457 30.590806 6.591076
2009-06-25 10:20:49 51°23.874 3°20.014 17.9661 4.081043 30.589713 6.486603
2009-06-25 10:21:49 51°23.926 3°20.302 17.9745 4.080524 30.584194 6.416955
2009-06-25 10:22:49 51°24.033 3°20.535 18.0099 4.080628 30.576167 6.451779
2009-06-25 10:23:49 51°24.195 3°20.69 18.0569 4.082079 30.554536 6.277659
2009-06-25 10:24:49 51°24.355 3°20.855 18.0117 4.079174 30.514362 6.277659
2009-06-25 10:25:49 51°24.512 3°21.029 17.9995 4.07181 30.481879 6.521427
2009-06-25 10:26:49 51°24.662 3°21.218 18.0008 4.06735 30.452346 6.6259
2009-06-25 10:27:49 51°24.812 3°21.411 18.0141 4.065794 30.438187 6.660724
2009-06-25 10:28:49 51°24.961 3°21.603 18.0044 4.067557 30.44287 6.521427
2009-06-25 10:29:49 51°25.112 3°21.791 17.9847 4.067869 30.451952 6.416955
2009-06-25 10:30:49 51°25.215 3°22.025 17.9857 4.067973 30.465211 6.486603
2009-06-25 10:31:49 51°25.17 3°22.265 17.9958 4.0743 30.514467 6.730372
2009-06-25 10:32:49 51°25.037 3°22.251 18.0133 4.078968 30.549282 6.730372
2009-06-25 10:33:49 51°24.96 3°22.019 18.0168 4.079486 30.538819 6.521427
2009-06-25 10:34:49 51°24.906 3°21.736 17.9732 4.078241 30.538488 6.6259
2009-06-25 10:35:49 51°24.82 3°21.466 17.9879 4.072848 30.516541 6.556251
2009-06-25 10:36:49 51°24.723 3°21.205 18.0085 4.072433 30.494159 6.382131
2009-06-25 10:37:49 51°24.648 3°20.929 18.0253 4.071914 30.480974 6.347307
2009-06-25 10:38:49 51°24.592 3°20.644 18.0253 4.072432 30.470547 6.312483
2009-06-25 10:39:49 51°24.545 3°20.353 18.0072 4.071084 30.464612 6.486603
2009-06-25 10:40:49 51°24.509 3°20.056 17.9974 4.069217 30.46143 6.660724
2009-06-25 10:41:49 51°24.496 3°19.754 17.99 4.068076 30.460173 6.80002
2009-06-25 10:42:49 51°24.498 3°19.45 17.9991 4.068284 30.462494 6.869668
2009-06-25 10:43:49 51°24.51 3°19.145 17.9884 4.06984 30.471343 6.80002
2009-06-25 10:44:49 51°24.521 3°18.839 17.9912 4.071707 30.494599 6.869668
2009-06-25 10:45:49 51°24.539 3°18.534 18.0174 4.075545 30.521898 6.939316
2009-06-25 10:46:49 51°24.577 3°18.238 18.0142 4.081664 30.554624 7.217908
2009-06-25 10:47:49 51°24.623 3°17.942 18.0103 4.087577 30.608101 7.635797
2009-06-25 10:48:49 51°24.67 3°17.644 18.0068 4.091726 30.645104 7.775093
2009-06-25 10:49:49 51°24.725 3°17.348 18.0259 4.094942 30.673135 7.949214
2009-06-25 10:50:49 51°24.779 3°17.056 18.0829 4.098261 30.680645 7.879566
2009-06-25 10:51:49 51°24.831 3°16.764 18.0898 4.109878 30.735378 8.123334
2009-06-25 10:52:49 51°24.883 3°16.469 18.1317 4.130004 30.905 9.063583
2009-06-25 10:53:49 51°24.936 3°16.184 18.1785 4.149299 31.021088 9.72524
2009-06-25 10:54:49 51°24.99 3°15.899 18.2055 4.175131 31.214283 10.978906
2009-06-25 10:55:49 51°25.041 3°15.613 18.2188 4.198268 31.384927 12.30222
2009-06-25 10:56:49 51°25.096 3°15.327 18.209 4.211964 31.493731 13.137998
2009-06-25 10:57:49 51°25.146 3°15.038 18.1858 4.220161 31.571259 13.695182
2009-06-25 10:58:49 51°25.194 3°14.749 18.1602 4.22732 31.648119 13.799655
2009-06-25 10:59:49 51°25.23 3°14.455 18.1273 4.234688 31.731105 13.59071
2009-06-25 11:00:49 51°25.255 3°14.158 18.1047 4.240499 31.801196 13.277294
2009-06-25 11:01:49 51°25.271 3°13.86 18.0888 4.245169 31.857523 13.103174
2009-06-25 11:02:49 51°25.283 3°13.561 18.0625 4.249423 31.907355 12.963877
2009-06-25 11:03:49 51°25.295 3°13.263 18.0367 4.253263 31.958087 12.580813
2009-06-25 11:04:49 51°25.308 3°12.965 18.0133 4.256377 32.005887 12.232572
2009-06-25 11:05:49 51°25.321 3°12.667 17.9795 4.258245 32.040812 12.058452
2009-06-25 11:06:49 51°25.334 3°12.37 17.9573 4.259802 32.078144 11.814684
2009-06-25 11:07:49 51°25.345 3°12.073 17.9248 4.261566 32.115413 11.640563
2009-06-25 11:08:49 51°25.351 3°11.775 17.9003 4.263331 32.149614 11.570915
2009-06-25 11:09:49 51°25.329 3°11.474 17.8801 4.265095 32.183861 11.466443
2009-06-25 11:10:49 51°25.276 3°11.178 17.8499 4.267067 32.218648 11.292323
2009-06-25 11:11:49 51°25.216 3°10.884 17.8137 4.268416 32.253879 11.083378
2009-06-25 11:12:49 51°25.151 3°10.59 17.7791 4.269351 32.28692 10.909258
2009-06-25 11:13:49 51°25.076 3°10.302 17.745 4.269766 32.315632 10.595842
2009-06-25 11:14:49 51°25.002 3°10.013 17.7248 4.26821 32.325819 10.282425
2009-06-25 11:15:49 51°24.93 3°9.723 17.7122 4.265305 32.31892 10.038657
2009-06-25 11:16:49 51°24.862 3°9.43 17.7053 4.2624 32.305067 10.003833
2009-06-25 11:17:49 51°24.808 3°9.131 17.7122 4.25939 32.281491 10.038657
2009-06-25 11:18:49 51°24.786 3°8.825 17.7161 4.255032 32.240824 9.829713
2009-06-25 11:19:49 51°24.786 3°8.517 17.7174 4.250777 32.20231 9.690416
2009-06-25 11:20:49 51°24.785 3°8.207 17.7201 4.247561 32.173842 9.585944
2009-06-25 11:21:49 51°24.782 3°7.894 17.714 4.2459 32.1598 9.585944
2009-06-25 11:22:49 51°24.778 3°7.582 17.707 4.244136 32.148653 9.516296
2009-06-25 11:23:49 51°24.772 3°7.268 17.6883 4.243618 32.151807 9.446648
2009-06-25 11:24:49 51°24.765 3°6.951 17.6761 4.243722 32.165895 9.237704
2009-06-25 11:25:49 51°24.755 3°6.633 17.6595 4.24476 32.186013 9.168055
2009-06-25 11:26:49 51°24.746 3°6.318 17.6478 4.247561 32.221718 8.854639
2009-06-25 11:27:49 51°24.753 3°6.009 17.6396 4.248599 32.23619 8.715343
2009-06-25 11:28:49 51°24.839 3°5.752 17.6384 4.248496 32.242889 8.645695
2009-06-25 11:29:49 51°24.994 3°5.644 17.6271 4.248392 32.24201 8.541223
2009-06-25 11:30:49 51°25.164 3°5.61 17.6115 4.251298 32.277385 8.367102
2009-06-25 11:31:49 51°25.334 3°5.583 17.5851 4.257005 32.340359 8.401926
2009-06-25 11:32:49 51°25.5 3°5.597 17.5709 4.261467 32.394103 8.332278
2009-06-25 11:33:49 51°25.659 3°5.676 17.5549 4.26209 32.414656 8.123334
2009-06-25 11:34:49 51°25.784 3°5.842 17.5352 4.267798 32.476533 8.018862
2009-06-25 11:35:49 51°25.842 3°6.098 17.5143 4.269562 32.506217 7.705445
2009-06-25 11:36:49 51°25.858 3°6.384 17.5063 4.270496 32.527587 7.496501
2009-06-25 11:37:49 51°25.868 3°6.675 17.5193 4.270808 32.533434 7.357205
2009-06-25 11:38:49 51°25.893 3°6.962 17.5416 4.271119 32.52329 7.426853
2009-06-25 11:39:49 51°25.922 3°7.247 17.5513 4.271534 32.512121 7.426853
2009-06-25 11:40:49 51°25.95 3°7.534 17.5429 4.271222 32.507558 7.426853
2009-06-25 11:41:49 51°25.977 3°7.821 17.5361 4.270288 32.506005 7.461677
2009-06-25 11:42:49 51°26.005 3°8.107 17.535 4.269458 32.502779 7.531325
2009-06-25 11:43:49 51°26.033 3°8.395 17.5534 4.268732 32.494047 7.670621
2009-06-25 11:44:49 51°26.06 3°8.684 17.5665 4.268524 32.483346 7.705445
2009-06-25 11:45:49 51°26.089 3°8.974 17.5922 4.268213 32.465393 7.879566
2009-06-25 11:46:49 51°26.119 3°9.264 17.63 4.268212 32.441826 8.08851
2009-06-25 11:47:49 51°26.147 3°9.558 17.6653 4.268212 32.41385 8.367102
2009-06-25 11:48:49 51°26.176 3°9.853 17.6975 4.268107 32.385047 8.680519
2009-06-25 11:49:49 51°26.256 3°10.107 17.7344 4.267796 32.357073 9.063583
2009-06-25 11:50:49 51°26.38 3°10.303 17.7589 4.267691 32.327745 9.028759
2009-06-25 11:51:49 51°26.508 3°10.497 17.7679 4.26821 32.31635 9.307352
2009-06-25 11:52:50 51°26.636 3°10.703 17.7587 4.26904 32.320215 9.585944
2009-06-25 11:53:49 51°26.757 3°10.904 17.7496 4.270285 32.335795 9.620768
2009-06-25 11:54:49 51°26.879 3°11.111 17.7256 4.271116 32.352925 9.55112
2009-06-25 11:55:49 51°27 3°11.317 17.6928 4.271739 32.377802 9.237704
2009-06-25 11:56:49 51°27.12 3°11.524 17.6611 4.271739 32.405045 9.028759
2009-06-25 11:57:49 51°27.241 3°11.733 17.6671 4.271221 32.416508 8.924287
2009-06-25 11:58:49 51°27.361 3°11.942 17.6705 4.270702 32.414014 8.993935
2009-06-25 11:59:49 51°27.509 3°12.06 17.6955 4.27039 32.399321 9.272528
2009-06-25 12:00:49 51°27.66 3°11.993 17.7152 4.270805 32.385091 9.133231
2009-06-25 12:01:49 51°27.729 3°11.751 17.7155 4.270701 32.372814 9.028759
2009-06-25 12:02:49 51°27.722 3°11.449 17.6663 4.270286 32.374364 8.889463
2009-06-25 12:03:49 51°27.631 3°11.169 17.6009 4.268834 32.400084 8.645695
2009-06-25 12:04:49 51°27.533 3°10.887 17.5418 4.26759 32.442268 8.08851
2009-06-25 12:05:49 51°27.446 3°10.602 17.4849 4.26593 32.47597 7.809917
2009-06-25 12:06:49 51°27.359 3°10.314 17.4318 4.264789 32.507803 7.461677
2009-06-25 12:07:49 51°27.268 3°10.03 17.4021 4.263649 32.539729 7.14826
2009-06-25 12:08:49 51°27.179 3°9.742 17.3769 4.262923 32.558575 7.078612
2009-06-25 12:09:49 51°27.089 3°9.455 17.3615 4.262508 32.569175 7.113436
2009-06-25 12:10:49 51°27 3°9.168 17.3468 4.261989 32.578256 7.14826
2009-06-25 12:11:49 51°26.91 3°8.88 17.3347 4.261367 32.581951 7.14826
2009-06-25 12:12:49 51°26.821 3°8.59 17.328 4.261056 32.588309 7.217908
2009-06-25 12:13:49 51°26.733 3°8.301 17.3145 4.260952 32.59451 7.14826
2009-06-25 12:14:49 51°26.643 3°8.014 17.3034 4.260848 32.601359 7.078612
2009-06-25 12:15:49 51°26.56 3°7.724 17.2952 4.260537 32.610954 6.939316
2009-06-25 12:16:49 51°26.491 3°7.426 17.3036 4.259603 32.607486 6.904492
2009-06-25 12:17:49 51°26.44 3°7.122 17.3244 4.261471 32.61055 6.97414
2009-06-25 12:18:49 51°26.4 3°6.814 17.326 4.261575 32.599185 7.008964
2009-06-25 12:19:49 51°26.364 3°6.505 17.3084 4.263131 32.619581 6.730372
2009-06-25 12:20:49 51°26.323 3°6.198 17.3177 4.263028 32.625146 6.660724
2009-06-25 12:21:49 51°26.281 3°5.889 17.3207 4.262301 32.613776 6.521427
2009-06-25 12:22:49 51°26.238 3°5.582 17.3261 4.264376 32.627643 6.486603
2009-06-25 12:23:49 51°26.191 3°5.276 17.3289 4.265207 32.632802 6.416955
2009-06-25 12:24:49 51°26.117 3°4.981 17.3289 4.266244 32.637798 6.312483
2009-06-25 12:25:49 51°26.025 3°4.694 17.3343 4.266867 32.643119 6.242835
2009-06-25 12:26:49 51°25.932 3°4.407 17.3328 4.268008 32.648356 6.277659
2009-06-25 12:27:49 51°25.843 3°4.124 17.3394 4.26832 32.65037 6.242835
2009-06-25 12:28:49 51°25.755 3°3.843 17.3451 4.269046 32.652704 6.103539
2009-06-25 12:29:49 51°25.671 3°3.561 17.3367 4.269772 32.660848 5.999067
2009-06-25 12:30:49 51°25.587 3°3.278 17.3349 4.269772 32.661493 5.964243
2009-06-25 12:31:49 51°25.503 3°2.996 17.3467 4.269046 32.655932 5.964243
2009-06-25 12:32:49 51°25.419 3°2.715 17.3548 4.268735 32.644883 6.068715
2009-06-25 12:33:49 51°25.296 3°2.48 17.3674 4.267904 32.632632 6.173187
2009-06-25 12:34:49 51°25.118 3°2.339 17.3698 4.267593 32.621594 6.033891
2009-06-25 12:35:49 51°24.925 3°2.246 17.3857 4.265932 32.604197 6.138363
2009-06-25 12:36:49 51°24.726 3°2.201 17.4219 4.264791 32.573224 6.242835
2009-06-25 12:37:49 51°24.525 3°2.198 17.4505 4.263752 32.539972 6.416955
2009-06-25 12:38:49 51°24.323 3°2.199 17.4994 4.261884 32.500343 6.730372
2009-06-25 12:39:49 51°24.127 3°2.199 17.5948 4.259704 32.438338 6.834844
2009-06-25 12:40:49 51°23.931 3°2.196 17.6563 4.251817 32.298245 6.904492
2009-06-25 12:41:49 51°23.751 3°2.107 17.6666 4.242166 32.174127 7.183084
2009-06-25 12:42:49 51°23.593 3°1.951 17.6725 4.233553 32.098063 7.705445
2009-06-25 12:43:49 51°23.456 3°1.759 17.6666 4.226809 32.037216 8.123334
2009-06-25 12:44:49 51°23.349 3°1.533 17.6578 4.223073 32.006864 8.506398
2009-06-25 12:45:49 51°23.241 3°1.303 17.6556 4.220479 31.99118 8.750167
2009-06-25 12:46:49 51°23.117 3°1.09 17.6691 4.219234 31.980019 8.680519
2009-06-25 12:47:49 51°22.986 3°0.885 17.6851 4.219545 31.972012 8.576047
2009-06-25 12:48:49 51°22.855 3°0.68 17.7105 4.220479 31.965522 8.610871
2009-06-25 12:49:49 51°22.722 3°0.474 17.7552 4.221931 31.960301 8.645695
2009-06-25 12:50:49 51°22.592 3°0.268 17.8181 4.224524 31.93915 8.750167
2009-06-25 12:51:49 51°22.465 3°0.065 17.8452 4.222448 31.879337 8.924287
2009-06-25 12:52:49 51°22.337 2°59.869 17.8475 4.215911 31.808761 9.028759
2009-06-25 12:53:49 51°22.212 2°59.671 17.8408 4.210205 31.759472 9.098407
2009-06-25 12:54:49 51°22.084 2°59.474 17.8392 4.205224 31.721871 9.20288
2009-06-25 12:55:49 51°21.959 2°59.274 17.8359 4.201697 31.693409 9.20288
2009-06-25 12:56:49 51°21.834 2°59.073 17.8355 4.198999 31.670085 9.168055
2009-06-25 12:57:49 51°21.71 2°58.868 17.8495 4.196301 31.647381 9.237704
2009-06-25 12:58:49 51°21.587 2°58.659 17.8604 4.195264 31.62818 9.342176
2009-06-25 12:59:49 51°21.463 2°58.452 17.8855 4.194122 31.60689 9.411824
2009-06-25 13:00:49 51°21.339 2°58.246 17.8971 4.192981 31.582546 9.307352
2009-06-25 13:01:49 51°21.227 2°58.027 17.9037 4.19215 31.568818 9.342176
2009-06-25 13:02:49 51°21.119 2°57.803 17.9199 4.191943 31.560326 9.237704
2009-06-25 13:03:49 51°21.012 2°57.583 17.9319 4.193084 31.556421 8.959111
2009-06-25 13:04:49 51°20.904 2°57.367 17.9435 4.194744 31.561166 8.784991
2009-06-25 13:05:49 51°20.8 2°57.146 17.9205 4.195678 31.567167 8.680519
2009-06-25 13:06:49 51°20.694 2°56.928 17.9142 4.194536 31.571686 8.784991
2009-06-25 13:07:49 51°20.588 2°56.71 17.9255 4.194225 31.568458 8.645695
2009-06-25 13:08:49 51°20.481 2°56.491 17.9383 4.194433 31.564682 8.401926
2009-06-25 13:09:49 51°20.374 2°56.271 17.957 4.195885 31.566457 8.367102
2009-06-25 13:10:49 51°20.269 2°56.056 17.9397 4.197545 31.569361 8.26263
2009-06-25 13:11:49 51°20.168 2°55.843 17.908 4.195366 31.566392 8.297454
2009-06-25 13:12:49 51°20.066 2°55.629 17.8859 4.19132 31.55387 8.401926
2009-06-25 13:13:49 51°19.961 2°55.42 17.8811 4.188208 31.541211 8.576047
2009-06-25 13:14:49 51°19.852 2°55.209 17.8854 4.186755 31.532071 8.506398
2009-06-25 13:15:49 51°19.745 2°55.005 17.8835 4.18634 31.524293 8.401926
2009-06-25 13:16:49 51°19.636 2°54.797 17.8914 4.182917 31.497978 8.26263
2009-06-25 13:17:49 51°19.521 2°54.599 17.9282 4.180738 31.471107 8.08851
2009-06-25 13:18:49 51°19.408 2°54.401 17.9561 4.178766 31.423405 7.775093
2009-06-25 13:19:49 51°19.296 2°54.202 17.955 4.176587 31.389894 7.635797
2009-06-25 13:20:49 51°19.184 2°54.003 17.9633 4.172644 31.358666 7.740269
2009-06-25 13:21:49 51°19.071 2°53.801 17.9798 4.170465 31.33493 7.705445
2009-06-25 13:22:49 51°18.961 2°53.598 18.0002 4.170361 31.31705 7.600973
2009-06-25 13:23:49 51°18.85 2°53.4 18.0316 4.17005 31.296242 7.426853
2009-06-25 13:24:49 51°18.738 2°53.203 18.0367 4.170257 31.279801 7.252733
2009-06-25 13:25:49 51°18.628 2°53.007 18.0381 4.16922 31.269305 7.14826
2009-06-25 13:26:49 51°18.517 2°52.806 18.0399 4.16839 31.262966 7.113436
2009-06-25 13:27:49 51°18.406 2°52.602 18.0566 4.167871 31.254392 7.14826
2009-06-25 13:28:49 51°18.295 2°52.404 18.071 4.168908 31.246741 7.043788
2009-06-25 13:29:49 51°18.174 2°52.224 18.0834 4.169634 31.243144 6.904492
2009-06-25 13:30:49 51°18.026 2°52.091 18.1013 4.169841 31.240046 6.765196
2009-06-25 13:31:49 51°17.872 2°51.978 18.1235 4.169841 31.224352 6.556251
2009-06-25 13:32:49 51°17.712 2°51.882 18.1323 4.167766 31.191957 6.521427
2009-06-25 13:33:49 51°17.543 2°51.906 18.1406 4.165068 31.161017 6.416955
2009-06-25 13:34:49 51°17.383 2°52.062 18.1554 4.161852 31.126972 6.277659
2009-06-25 13:35:49 51°17.225 2°52.227 18.1475 4.156353 31.074515 6.242835
2009-06-25 13:36:49 51°17.064 2°52.383 18.1615 4.148884 31.015235 6.451779
2009-06-25 13:37:49 51°16.901 2°52.534 18.1897 4.144837 30.967171 6.6259
2009-06-25 13:38:49 51°16.735 2°52.677 18.2164 4.143177 30.933065 6.695548
2009-06-25 13:39:49 51°16.57 2°52.825 18.2439 4.142762 30.909365 6.730372
2009-06-25 13:40:49 51°16.403 2°52.967 18.2568 4.143695 30.899883 6.834844
2009-06-25 13:41:49 51°16.235 2°53.111 18.2687 4.144318 30.894955 6.834844
2009-06-25 13:42:49 51°16.067 2°53.253 18.2809 4.145874 30.898978 6.765196
2009-06-25 13:43:49 51°15.9 2°53.39 18.2955 4.146288 30.892331 6.765196
2009-06-25 13:44:49 51°15.729 2°53.509 18.2986 4.143902 30.864206 7.008964
2009-06-25 13:45:49 51°15.56 2°53.641 18.2979 4.140997 30.839492 7.357205
2009-06-25 13:46:49 51°15.393 2°53.79 18.3099 4.138922 30.820488 7.670621
2009-06-25 13:47:49 51°15.231 2°53.949 18.3159 4.138196 30.8115 7.949214
2009-06-25 13:48:49 51°15.072 2°54.113 18.3351 4.137781 30.796227 8.018862
2009-06-25 13:49:49 51°14.913 2°54.273 18.3578 4.134876 30.757365 7.984038
2009-06-25 13:50:49 51°14.76 2°54.453 18.3744 4.131867 30.714152 8.08851
2009-06-25 13:51:49 51°14.604 2°54.632 18.3891 4.129792 30.688722 8.192982
2009-06-25 13:52:49 51°14.462 2°54.845 18.3904 4.129066 30.672127 8.43675
2009-06-25 13:53:49 51°14.339 2°55.088 18.4187 4.126784 30.651467 8.854639
2009-06-25 13:54:49 51°14.239 2°55.279 18.523 4.126679 30.625972 10.108305
2009-06-25 13:55:49 51°14.131 2°55.402 18.7122 4.114436 30.408402 12.615637
2009-06-25 13:56:49 51°14.005 2°55.492 18.8537 4.05925 29.853762 13.137998
2009-06-25 13:57:49 51°13.888 2°55.578 18.9418 3.970262 29.021641 13.451414
2009-06-25 13:58:49 51°13.793 2°55.656 19.0233 3.901925 28.415692 13.695182
2009-06-25 13:59:49 51°13.731 2°55.751 19.2157 3.782178 27.390766 13.869303
2009-06-25 14:00:49 51°13.691 2°55.847 19.2939 3.614584 25.929085 13.834479
2009-06-25 14:01:49 51°13.668 2°55.934 19.3404 3.542673 25.314329 14.217543
2009-06-25 14:02:49 51°13.662 2°55.956 19.3836 3.475125 24.754761 14.252367